createdAt,value
2023-05-02T00:02:31.880Z,9.62
2023-05-02T00:05:15.451Z,9.65
2023-05-02T00:07:58.876Z,9.59
2023-05-02T00:10:43.645Z,9.55
2023-05-02T00:13:27.110Z,9.54
2023-05-02T00:16:11.260Z,9.49
2023-05-02T00:18:54.684Z,9.47
2023-05-02T00:21:37.785Z,9.51
2023-05-02T00:24:22.029Z,9.42
2023-05-02T00:27:07.137Z,9.40
2023-05-02T00:29:50.291Z,9.42
2023-05-02T00:32:33.966Z,9.40
2023-05-02T00:35:17.196Z,9.39
2023-05-02T00:38:01.248Z,9.42
2023-05-02T00:40:46.154Z,9.45
2023-05-02T00:43:33.455Z,9.51
2023-05-02T00:46:16.750Z,9.54
2023-05-02T00:49:00.745Z,9.61
2023-05-02T00:51:44.158Z,9.58
2023-05-02T00:54:27.377Z,9.59
2023-05-02T00:57:12.137Z,9.74
2023-05-02T00:59:57.469Z,9.80
2023-05-02T01:02:51.015Z,9.87
2023-05-02T01:05:46.333Z,9.94
2023-05-02T01:08:38.638Z,9.94
2023-05-02T01:11:34.069Z,9.88
2023-05-02T01:14:18.497Z,9.94
2023-05-02T01:17:06.306Z,9.96
2023-05-02T01:19:54.163Z,9.93
2023-05-02T01:22:41.202Z,9.99
2023-05-02T01:25:31.117Z,9.96
2023-05-02T01:28:29.087Z,10.04
2023-05-02T01:31:15.247Z,10.07
2023-05-02T01:34:00.279Z,10.18
2023-05-02T01:36:46.922Z,10.25
2023-05-02T01:39:31.620Z,10.14
2023-05-02T01:42:16.646Z,10.27
2023-05-02T01:45:01.518Z,10.13
2023-05-02T01:47:47.820Z,10.04
2023-05-02T01:50:31.503Z,9.93
2023-05-02T01:53:15.884Z,9.83
2023-05-02T01:56:00.885Z,9.91
2023-05-02T01:58:47.148Z,9.89
2023-05-02T02:01:31.864Z,9.90
2023-05-02T02:04:19.056Z,9.85
2023-05-02T02:07:07.654Z,9.83
2023-05-02T02:09:51.374Z,9.81
2023-05-02T02:12:43.911Z,9.64
2023-05-02T02:15:30.563Z,9.63
2023-05-02T02:18:19.875Z,9.63
2023-05-02T02:21:08.168Z,9.70
2023-05-02T02:23:57.387Z,9.72
2023-05-02T02:26:40.792Z,9.69
2023-05-02T02:29:23.954Z,9.59
2023-05-02T02:32:07.328Z,9.62
2023-05-02T02:34:50.630Z,9.57
2023-05-02T02:37:41.187Z,9.63
2023-05-02T02:40:29.952Z,9.74
2023-05-02T02:43:20.857Z,9.61
2023-05-02T02:46:18.491Z,9.61
2023-05-02T02:49:16.594Z,9.53
2023-05-02T02:52:09.190Z,9.55
2023-05-02T02:55:00.036Z,9.72
2023-05-02T02:57:52.802Z,9.82
2023-05-02T03:00:37.858Z,9.89
2023-05-02T03:03:25.210Z,9.94
2023-05-02T03:06:08.751Z,9.88
2023-05-02T03:08:54.248Z,9.91
2023-05-02T03:11:38.822Z,10.04
2023-05-02T03:14:22.147Z,10.02
2023-05-02T03:17:05.385Z,10.05
2023-05-02T03:19:48.825Z,10.12
2023-05-02T03:22:33.270Z,10.07
2023-05-02T03:25:16.626Z,10.07
2023-05-02T03:28:02.448Z,9.87
2023-05-02T03:30:46.072Z,10.05
2023-05-02T03:33:29.332Z,10.19
2023-05-02T03:36:12.528Z,10.26
2023-05-02T03:38:56.089Z,10.30
2023-05-02T03:41:39.258Z,10.24
2023-05-02T03:44:23.909Z,10.33
2023-05-02T03:47:07.654Z,10.41
2023-05-02T03:49:53.193Z,10.51
2023-05-02T03:52:36.457Z,10.60
2023-05-02T03:55:19.706Z,10.65
2023-05-02T03:58:02.824Z,10.67
2023-05-02T04:00:47.489Z,10.64
2023-05-02T04:03:31.149Z,10.68
2023-05-02T04:06:14.449Z,10.65
2023-05-02T04:08:58.592Z,10.67
2023-05-02T04:11:43.240Z,10.68
2023-05-02T04:14:26.574Z,10.71
2023-05-02T04:17:11.902Z,10.78
2023-05-02T04:19:55.347Z,10.93
2023-05-02T04:22:39.768Z,10.91
2023-05-02T04:25:23.016Z,10.88
2023-05-02T04:28:07.363Z,10.92
2023-05-02T04:30:51.029Z,10.95
2023-05-02T04:33:36.601Z,11.05
2023-05-02T04:36:20.253Z,11.02
2023-05-02T04:39:03.790Z,11.19
2023-05-02T04:41:47.036Z,11.20
2023-05-02T04:44:30.150Z,11.30
2023-05-02T04:47:13.296Z,11.33
2023-05-02T04:49:58.093Z,11.41
2023-05-02T04:52:42.094Z,11.47
2023-05-02T04:55:25.273Z,11.60
2023-05-02T04:58:08.434Z,11.65
2023-05-02T05:00:51.478Z,11.77
2023-05-02T05:03:34.643Z,11.86
2023-05-02T05:06:19.440Z,11.97
2023-05-02T05:09:02.664Z,12.06
2023-05-02T05:11:46.295Z,12.09
2023-05-02T05:14:31.523Z,12.21
2023-05-02T05:17:14.738Z,12.27
2023-05-02T05:19:57.954Z,12.42
2023-05-02T05:22:43.267Z,12.38
2023-05-02T05:25:27.315Z,12.40
2023-05-02T05:28:10.422Z,12.49
2023-05-02T05:30:53.877Z,12.62
2023-05-02T05:33:37.519Z,12.82
2023-05-02T05:36:22.849Z,12.96
2023-05-02T05:39:08.038Z,13.21
2023-05-02T05:41:51.196Z,13.53
2023-05-02T05:44:34.265Z,13.82
2023-05-02T05:47:22.056Z,14.14
2023-05-02T05:50:06.268Z,14.23
2023-05-02T05:52:49.402Z,14.48
2023-05-02T05:55:35.907Z,14.83
2023-05-02T05:58:20.407Z,15.12
2023-05-02T06:01:03.554Z,15.32
2023-05-02T06:03:46.799Z,15.62
2023-05-02T06:06:30.280Z,16.03
2023-05-02T06:09:13.886Z,16.31
2023-05-02T06:11:58.383Z,16.34
2023-05-02T06:14:41.739Z,16.63
2023-05-02T06:17:24.989Z,17.10
2023-05-02T06:20:12.549Z,16.82
2023-05-02T06:22:56.183Z,17.06
2023-05-02T06:25:40.254Z,17.33
2023-05-02T06:28:24.735Z,17.57
2023-05-02T06:31:10.837Z,17.77
2023-05-02T06:33:54.098Z,18.03
2023-05-02T06:36:44.778Z,18.01
2023-05-02T06:39:34.341Z,18.17
2023-05-02T06:42:17.414Z,18.16
2023-05-02T06:45:01.880Z,18.57
2023-05-02T06:47:45.300Z,18.88
2023-05-02T06:50:28.526Z,18.94
2023-05-02T06:53:11.593Z,19.38
2023-05-02T06:55:55.067Z,21.44
2023-05-02T06:58:38.235Z,25.23
2023-05-02T07:01:23.521Z,27.19
2023-05-02T07:04:06.883Z,28.23
2023-05-02T07:06:50.123Z,29.72
2023-05-02T07:09:33.500Z,30.05
2023-05-02T07:12:16.561Z,31.16
2023-05-02T07:14:59.617Z,32.71
2023-05-02T07:17:44.823Z,33.27
2023-05-02T07:20:28.059Z,32.19
2023-05-02T07:23:11.138Z,33.61
2023-05-02T07:25:54.202Z,34.83
2023-05-02T07:28:37.280Z,35.08
2023-05-02T07:31:20.566Z,35.69
2023-05-02T07:34:05.043Z,36.89
2023-05-02T07:36:48.164Z,36.79
2023-05-02T07:39:31.377Z,38.81
2023-05-02T07:42:14.428Z,39.60
2023-05-02T07:44:57.667Z,39.61
2023-05-02T07:47:42.004Z,39.23
2023-05-02T07:50:27.384Z,40.74
2023-05-02T07:53:11.273Z,39.75
2023-05-02T07:55:54.520Z,40.55
2023-05-02T07:58:38.446Z,40.25
2023-05-02T08:01:21.563Z,40.39
2023-05-02T08:04:05.681Z,39.92
2023-05-02T08:06:50.556Z,39.23
2023-05-02T08:09:33.990Z,38.58
2023-05-02T08:12:17.066Z,37.52
2023-05-02T08:15:00.241Z,38.49
2023-05-02T08:17:43.647Z,40.19
2023-05-02T08:20:26.967Z,40.66
2023-05-02T08:23:11.485Z,38.44
2023-05-02T08:25:55.604Z,38.43
2023-05-02T08:28:39.123Z,39.08
2023-05-02T08:31:23.048Z,38.72
2023-05-02T08:34:07.175Z,37.38
2023-05-02T08:36:50.312Z,37.92
2023-05-02T08:39:35.935Z,39.22
2023-05-02T08:42:21.005Z,36.76
2023-05-02T08:45:04.272Z,35.32
2023-05-02T08:47:49.487Z,35.36
2023-05-02T08:50:32.819Z,33.82
2023-05-02T08:53:15.997Z,34.98
2023-05-02T08:56:00.755Z,37.03
2023-05-02T08:58:43.872Z,38.04
2023-05-02T09:01:31.708Z,37.68
2023-05-02T09:04:16.044Z,38.37
2023-05-02T09:06:59.579Z,39.23
2023-05-02T09:09:42.726Z,39.53
2023-05-02T09:12:30.301Z,39.12
2023-05-02T09:15:16.879Z,39.02
2023-05-02T09:18:01.568Z,39.82
2023-05-02T09:20:44.764Z,39.92
2023-05-02T09:23:34.813Z,38.35
2023-05-02T09:26:19.814Z,38.94
2023-05-02T09:29:06.021Z,39.14
2023-05-02T09:31:56.313Z,38.11
2023-05-02T09:34:40.008Z,37.82
2023-05-02T09:37:35.935Z,36.57
2023-05-02T09:40:19.938Z,39.06
2023-05-02T09:43:16.418Z,38.36
2023-05-02T09:46:02.951Z,40.31
2023-05-02T09:48:57.983Z,40.30
2023-05-02T09:51:41.636Z,39.92
2023-05-02T09:54:38.083Z,39.71
2023-05-02T09:57:22.037Z,41.47
2023-05-02T10:00:05.975Z,40.79
2023-05-02T10:02:52.453Z,41.94
2023-05-02T10:05:39.005Z,41.48
2023-05-02T10:08:23.067Z,39.80
2023-05-02T10:11:09.248Z,41.10
2023-05-02T10:13:54.230Z,42.18
2023-05-02T10:16:41.463Z,40.96
2023-05-02T10:19:32.155Z,41.25
2023-05-02T10:22:15.636Z,43.05
2023-05-02T10:25:01.130Z,42.13
2023-05-02T10:27:44.800Z,41.04
2023-05-02T10:30:28.372Z,41.46
2023-05-02T10:33:15.077Z,39.38
2023-05-02T10:36:00.042Z,38.72
2023-05-02T10:38:43.815Z,38.04
2023-05-02T10:41:30.055Z,37.32
2023-05-02T10:44:13.707Z,36.36
2023-05-02T10:46:57.232Z,37.35
2023-05-02T10:49:53.754Z,37.52
2023-05-02T10:52:41.365Z,37.39
2023-05-02T10:55:25.494Z,36.75
2023-05-02T10:58:27.044Z,34.64
2023-05-02T11:01:41.949Z,33.06
2023-05-02T11:04:25.866Z,30.16
2023-05-02T11:07:20.249Z,28.32
2023-05-02T11:10:36.656Z,27.64
2023-05-02T11:13:50.412Z,25.93
2023-05-02T11:17:06.929Z,24.71
2023-05-02T11:20:29.301Z,24.47
2023-05-02T11:23:26.342Z,24.42
2023-05-02T11:26:23.299Z,24.23
2023-05-02T11:29:07.782Z,24.31
2023-05-02T11:31:59.506Z,23.72
2023-05-02T11:34:46.096Z,23.46
2023-05-02T11:37:32.722Z,23.11
2023-05-02T11:40:17.039Z,23.10
2023-05-02T11:43:02.740Z,22.25
2023-05-02T11:45:47.411Z,21.96
2023-05-02T11:48:31.905Z,21.90
2023-05-02T11:51:15.453Z,21.88
2023-05-02T11:54:00.197Z,21.74
2023-05-02T11:56:43.987Z,21.60
2023-05-02T11:59:27.432Z,21.25
2023-05-02T12:02:12.032Z,21.28
2023-05-02T12:04:55.222Z,20.96
2023-05-02T12:07:39.059Z,21.02
2023-05-02T12:10:22.302Z,20.97
2023-05-02T12:13:06.743Z,20.89
2023-05-02T12:15:51.822Z,20.94
2023-05-02T12:18:37.013Z,20.76
2023-05-02T12:21:20.958Z,20.97
2023-05-02T12:24:04.698Z,20.90
2023-05-02T12:26:49.368Z,20.63
2023-05-02T12:29:45.385Z,20.53
2023-05-02T12:32:30.207Z,20.55
2023-05-02T12:35:24.042Z,20.62
2023-05-02T12:38:12.513Z,20.64
2023-05-02T12:40:57.874Z,20.61
2023-05-02T12:43:48.652Z,20.63
2023-05-02T12:46:32.644Z,20.88
2023-05-02T12:49:18.174Z,20.59
2023-05-02T12:52:04.773Z,20.51
2023-05-02T12:54:51.705Z,20.46
2023-05-02T12:57:34.826Z,20.29
2023-05-02T13:00:18.821Z,20.41
2023-05-02T13:03:02.218Z,20.06
2023-05-02T13:05:45.511Z,19.97
2023-05-02T13:08:31.392Z,19.86
2023-05-02T13:11:14.824Z,19.63
2023-05-02T13:14:00.300Z,19.62
2023-05-02T13:16:43.499Z,19.64
2023-05-02T13:19:29.308Z,19.49
2023-05-02T13:22:12.420Z,19.53
2023-05-02T13:24:57.154Z,19.62
2023-05-02T13:27:41.319Z,19.67
2023-05-02T13:30:24.514Z,19.63
2023-05-02T13:33:08.101Z,19.55
2023-05-02T13:35:51.610Z,19.36
2023-05-02T13:38:35.388Z,19.28
2023-05-02T13:41:20.268Z,19.31
2023-05-02T13:44:04.412Z,19.29
2023-05-02T13:46:47.978Z,19.24
2023-05-02T13:49:31.311Z,19.21
2023-05-02T13:52:14.498Z,19.02
2023-05-02T13:54:57.728Z,18.99
2023-05-02T13:57:42.298Z,18.93
2023-05-02T14:00:28.621Z,18.94
2023-05-02T14:03:13.655Z,18.95
2023-05-02T14:05:56.962Z,18.95
2023-05-02T14:08:41.406Z,18.84
2023-05-02T14:11:24.632Z,18.90
2023-05-02T14:14:12.503Z,18.91
2023-05-02T14:16:56.073Z,18.86
2023-05-02T14:19:39.301Z,18.91
2023-05-02T14:22:22.387Z,19.02
2023-05-02T14:25:06.113Z,18.97
2023-05-02T14:27:49.283Z,19.00
2023-05-02T14:30:33.983Z,18.89
2023-05-02T14:33:17.351Z,18.85
2023-05-02T14:36:00.732Z,18.88
2023-05-02T14:38:43.919Z,18.84
2023-05-02T14:41:27.769Z,18.90
2023-05-02T14:44:10.921Z,18.81
2023-05-02T14:46:58.777Z,18.75
2023-05-02T14:49:42.200Z,18.74
2023-05-02T14:52:25.475Z,18.80
2023-05-02T14:55:09.225Z,18.68
2023-05-02T14:57:52.576Z,18.63
2023-05-02T15:00:38.172Z,18.66
2023-05-02T15:03:23.247Z,18.70
2023-05-02T15:06:06.593Z,18.66
2023-05-02T15:08:53.009Z,18.59
2023-05-02T15:11:36.186Z,18.63
2023-05-02T15:14:19.304Z,18.60
2023-05-02T15:17:02.719Z,18.54
2023-05-02T15:19:47.499Z,18.50
2023-05-02T15:22:30.607Z,18.56
2023-05-02T15:25:13.864Z,18.49
2023-05-02T15:27:57.031Z,18.40
2023-05-02T15:30:41.679Z,18.37
2023-05-02T15:33:24.854Z,18.44
2023-05-02T15:36:10.156Z,18.29
2023-05-02T15:38:53.302Z,18.19
2023-05-02T15:41:37.153Z,18.17
2023-05-02T15:44:20.511Z,18.11
2023-05-02T15:47:03.739Z,18.06
2023-05-02T15:49:47.373Z,18.01
2023-05-02T15:52:31.998Z,17.98
2023-05-02T15:55:15.209Z,17.94
2023-05-02T15:57:58.818Z,17.81
2023-05-02T16:00:42.295Z,17.78
2023-05-02T16:03:25.561Z,17.74
2023-05-02T16:06:09.485Z,17.60
2023-05-02T16:08:54.097Z,17.53
2023-05-02T16:11:38.595Z,17.41
2023-05-02T16:14:24.038Z,17.38
2023-05-02T16:17:07.162Z,17.32
2023-05-02T16:19:50.363Z,17.33
2023-05-02T16:22:33.590Z,17.31
2023-05-02T16:25:18.856Z,17.27
2023-05-02T16:28:02.267Z,17.19
2023-05-02T16:30:45.448Z,17.16
2023-05-02T16:33:28.651Z,17.20
2023-05-02T16:36:12.125Z,17.15
2023-05-02T16:38:57.240Z,16.98
2023-05-02T16:41:42.111Z,16.99
2023-05-02T16:44:25.489Z,17.00
2023-05-02T16:47:09.381Z,16.93
2023-05-02T16:49:56.109Z,16.92
2023-05-02T16:52:40.025Z,16.76
2023-05-02T16:55:25.108Z,16.60
2023-05-02T16:58:10.290Z,16.58
2023-05-02T17:00:53.762Z,16.52
2023-05-02T17:03:37.087Z,16.47
2023-05-02T17:06:23.055Z,16.35
2023-05-02T17:09:06.558Z,16.33
2023-05-02T17:11:50.365Z,16.13
2023-05-02T17:14:35.074Z,16.14
2023-05-02T17:17:20.525Z,15.95
2023-05-02T17:20:03.907Z,15.84
2023-05-02T17:22:47.278Z,15.76
2023-05-02T17:25:31.418Z,15.70
2023-05-02T17:28:14.680Z,15.62
2023-05-02T17:31:00.347Z,15.61
2023-05-02T17:33:43.862Z,15.59
2023-05-02T17:36:28.001Z,15.45
2023-05-02T17:39:17.819Z,15.33
2023-05-02T17:42:02.191Z,15.38
2023-05-02T17:44:47.719Z,15.35
2023-05-02T17:47:32.303Z,15.26
2023-05-02T17:50:15.659Z,15.21
2023-05-02T17:53:01.060Z,15.18
2023-05-02T17:55:44.627Z,15.09
2023-05-02T17:58:28.453Z,15.15
2023-05-02T18:01:12.441Z,15.09
2023-05-02T18:03:59.510Z,15.13
2023-05-02T18:06:42.865Z,15.15
2023-05-02T18:09:25.962Z,15.15
2023-05-02T18:12:09.809Z,15.10
2023-05-02T18:14:54.027Z,15.01
2023-05-02T18:17:39.048Z,14.92
2023-05-02T18:20:23.660Z,14.74
2023-05-02T18:23:06.681Z,14.75
2023-05-02T18:25:49.936Z,14.85
2023-05-02T18:28:34.652Z,14.81
2023-05-02T18:31:18.267Z,14.93
2023-05-02T18:34:01.369Z,14.93
2023-05-02T18:36:46.272Z,14.85
2023-05-02T18:39:31.901Z,14.91
2023-05-02T18:42:17.602Z,14.78
2023-05-02T18:45:01.462Z,14.88
2023-05-02T18:47:45.139Z,15.01
2023-05-02T18:50:28.394Z,14.74
2023-05-02T18:53:13.364Z,14.67
2023-05-02T18:55:58.026Z,14.65
2023-05-02T18:58:41.143Z,14.54
2023-05-02T19:01:25.130Z,14.48
2023-05-02T19:04:08.411Z,14.50
2023-05-02T19:06:51.679Z,14.49
2023-05-02T19:09:36.292Z,14.51
2023-05-02T19:12:19.417Z,14.48
2023-05-02T19:15:02.966Z,14.42
2023-05-02T19:17:46.522Z,14.34
2023-05-02T19:20:30.422Z,14.41
2023-05-02T19:23:18.953Z,14.40
2023-05-02T19:26:04.837Z,14.40
2023-05-02T19:28:48.215Z,14.35
2023-05-02T19:31:31.622Z,14.39
2023-05-02T19:34:14.784Z,14.34
2023-05-02T19:36:57.915Z,14.31
2023-05-02T19:39:41.085Z,14.31
2023-05-02T19:42:25.548Z,14.28
2023-05-02T19:45:09.988Z,14.21
2023-05-02T19:47:53.137Z,14.38
2023-05-02T19:50:36.360Z,14.25
2023-05-02T19:53:19.807Z,14.31
2023-05-02T19:56:04.867Z,14.38
2023-05-02T19:58:49.755Z,14.43
2023-05-02T20:01:32.891Z,14.31
2023-05-02T20:04:16.056Z,14.17
2023-05-02T20:06:59.237Z,14.13
2023-05-02T20:09:42.400Z,14.02
2023-05-02T20:12:25.985Z,14.13
2023-05-02T20:15:11.333Z,13.99
2023-05-02T20:17:57.086Z,13.95
2023-05-02T20:20:40.394Z,13.78
2023-05-02T20:23:23.825Z,13.81
2023-05-02T20:26:06.982Z,14.00
2023-05-02T20:28:50.411Z,13.85
2023-05-02T20:31:36.369Z,13.77
2023-05-02T20:34:19.632Z,13.76
2023-05-02T20:37:03.858Z,13.79
2023-05-02T20:39:46.910Z,13.69
2023-05-02T20:42:30.124Z,13.77
2023-05-02T20:45:15.131Z,13.72
2023-05-02T20:47:59.708Z,13.73
2023-05-02T20:50:42.930Z,13.66
2023-05-02T20:53:26.169Z,13.67
2023-05-02T20:56:10.819Z,13.65
2023-05-02T20:58:54.303Z,13.69
2023-05-02T21:01:37.560Z,13.64
2023-05-02T21:04:22.300Z,13.96
2023-05-02T21:07:05.478Z,13.79
2023-05-02T21:09:49.072Z,13.67
2023-05-02T21:12:32.179Z,13.66
2023-05-02T21:15:15.539Z,13.56
2023-05-02T21:18:02.348Z,13.63
2023-05-02T21:20:49.353Z,13.82
2023-05-02T21:23:32.474Z,13.57
2023-05-02T21:26:15.695Z,13.61
2023-05-02T21:28:59.173Z,13.71
2023-05-02T21:31:42.363Z,13.62
2023-05-02T21:34:25.575Z,13.62
2023-05-02T21:37:10.150Z,13.54
2023-05-02T21:39:53.368Z,13.53
2023-05-02T21:42:36.652Z,13.40
2023-05-02T21:45:20.080Z,13.42
2023-05-02T21:48:03.313Z,13.42
2023-05-02T21:50:46.774Z,13.33
2023-05-02T21:53:31.537Z,13.29
2023-05-02T21:56:14.746Z,13.29
2023-05-02T21:58:57.899Z,13.38
2023-05-02T22:01:41.315Z,13.33
2023-05-02T22:04:24.938Z,13.19
2023-05-02T22:07:08.213Z,13.08
2023-05-02T22:09:52.742Z,13.12
2023-05-02T22:12:35.896Z,13.10
2023-05-02T22:15:18.999Z,13.06
2023-05-02T22:18:04.923Z,13.00
2023-05-02T22:20:48.770Z,13.00
2023-05-02T22:23:32.138Z,12.94
2023-05-02T22:26:16.704Z,12.87
2023-05-02T22:28:59.819Z,12.88
2023-05-02T22:31:42.881Z,12.92
2023-05-02T22:34:26.134Z,12.83
2023-05-02T22:37:09.705Z,12.85
2023-05-02T22:39:53.725Z,12.77
2023-05-02T22:42:38.208Z,12.84
2023-05-02T22:45:21.409Z,12.73
2023-05-02T22:48:04.912Z,12.87
2023-05-02T22:50:49.199Z,12.77
2023-05-02T22:53:32.751Z,12.74
2023-05-02T22:56:15.962Z,12.82
2023-05-02T22:59:01.252Z,12.76
2023-05-02T23:01:44.384Z,12.80
2023-05-02T23:04:27.573Z,12.72
2023-05-02T23:07:11.052Z,12.77
2023-05-02T23:09:54.285Z,12.64
2023-05-02T23:12:37.369Z,12.64
2023-05-02T23:15:21.861Z,12.57
2023-05-02T23:18:05.179Z,12.52
2023-05-02T23:20:48.442Z,12.63
2023-05-02T23:23:31.881Z,12.59
2023-05-02T23:26:15.139Z,12.51
2023-05-02T23:28:58.266Z,12.50
2023-05-02T23:31:43.065Z,12.52
2023-05-02T23:34:26.547Z,12.50
2023-05-02T23:37:10.020Z,12.51
2023-05-02T23:39:53.139Z,12.48
2023-05-02T23:42:40.302Z,12.39
2023-05-02T23:45:23.792Z,12.35
2023-05-02T23:48:08.573Z,12.36
2023-05-02T23:50:51.945Z,12.28
2023-05-02T23:53:35.068Z,12.32
2023-05-02T23:56:18.170Z,12.22
2023-05-02T23:59:01.211Z,12.21
